Emerald, Australia
Current Conditions -  °F | °C
As of 7:00 AM on Saturday 01 Nov 2014 (Local Time) from YEML Reporting Station
Clear Clear  
Wind Chill: 72°   Ceiling: Unl
Heat Index: 72°   Visibility: 6mi
Dew Point: 64°   Wind: 12mph
Humidity: 78%   Direction: 30°NNE
Pressure: 29.97"   Gusts: NA
Location:  23.52°S, 148.16°E
Report Text: YEML 312100Z AUTO 03010KT 9999 // NCD 22/18 Q1015
Loading
Personal Weather Stations






























Interactive Weather Map
Tropical Storm Tracking
New forecast layout! Learn more

10-Day Weather Forecast

Advertisements
Track Severe Weather on mobile